Time;durP1;ratioP1;P1;durP2;ratioP2;P2;SDS_P1;SDS_P2;PMS_P1;PMS_P2;Temp;Humidity;BMP_temperature;BMP_pressure;BME280_temperature;BME280_humidity;BME280_pressure;Samples;Min_cycle;Max_cycle;Signal;HPM_P1;HPM_P2
2023/07/29 00:02:01;;;;;;;8.40;6.07;;;18.20;99.90;;;;;;4999104;28;20035;-79
2023/07/29 00:04:30;;;;;;;7.40;6.20;;;18.30;99.90;;;;;;4998773;28;20038;-78
2023/07/29 00:06:57;;;;;;;10.00;6.43;;;18.30;99.90;;;;;;4999370;28;20074;-79
2023/07/29 00:09:24;;;;;;;8.10;6.20;;;18.30;99.90;;;;;;4999609;28;20528;-79
2023/07/29 00:11:52;;;;;;;12.88;8.82;;;18.30;99.90;;;;;;4998471;28;20042;-79
2023/07/29 00:14:19;;;;;;;8.90;6.07;;;18.30;99.90;;;;;;4999072;28;20045;-79
2023/07/29 00:16:46;;;;;;;8.73;6.10;;;18.30;99.90;;;;;;4998630;28;20742;-80
2023/07/29 00:19:14;;;;;;;6.65;5.32;;;18.40;99.90;;;;;;4998617;28;20081;-79
2023/07/29 00:21:43;;;;;;;10.73;5.60;;;18.50;99.90;;;;;;4998046;28;20042;-79
2023/07/29 00:24:10;;;;;;;6.68;5.28;;;18.60;99.90;;;;;;4999232;28;20053;-79
2023/07/29 00:26:37;;;;;;;14.07;5.35;;;18.50;99.90;;;;;;4998834;28;20046;-78
2023/07/29 00:29:05;;;;;;;8.02;5.53;;;18.50;99.90;;;;;;4981327;28;20050;-80
2023/07/29 00:31:32;;;;;;;8.98;6.03;;;18.50;99.90;;;;;;4981532;28;20046;-80
2023/07/29 00:34:00;;;;;;;15.88;5.80;;;18.40;99.90;;;;;;4980522;28;20474;-80
2023/07/29 00:36:27;;;;;;;7.60;5.53;;;18.40;99.90;;;;;;4998892;28;20398;-79
2023/07/29 00:38:57;;;;;;;9.15;5.70;;;18.40;99.90;;;;;;4980228;28;20429;-79
2023/07/29 00:41:24;;;;;;;10.40;6.32;;;18.40;99.90;;;;;;4998150;28;20243;-79
2023/07/29 00:43:51;;;;;;;9.88;6.22;;;18.40;99.90;;;;;;4980868;28;20049;-79
2023/07/29 00:46:21;;;;;;;8.73;6.00;;;18.30;99.90;;;;;;4981668;28;20038;-79
2023/07/29 00:48:48;;;;;;;10.73;6.32;;;18.20;99.90;;;;;;4998101;28;20039;-80
2023/07/29 00:51:15;;;;;;;8.98;6.30;;;18.20;99.90;;;;;;4979593;28;20048;-80
2023/07/29 00:53:43;;;;;;;7.57;6.03;;;18.20;99.90;;;;;;4997886;28;20525;-78
2023/07/29 00:56:13;;;;;;;7.90;6.05;;;18.20;99.90;;;;;;4978683;28;20498;-79
2023/07/29 00:58:40;;;;;;;8.40;6.05;;;18.10;99.90;;;;;;4998116;28;20083;-79
2023/07/29 01:01:08;;;;;;;7.80;6.30;;;18.10;99.90;;;;;;4998745;28;20043;-79
2023/07/29 01:03:36;;;;;;;6.53;5.57;;;18.10;99.90;;;;;;4980936;28;20573;-79
2023/07/29 01:06:13;;;;;;;10.98;6.18;;;18.10;99.90;;;;;;4980516;28;20530;-80
2023/07/29 01:08:51;;;;;;;9.65;6.70;;;18.10;99.90;;;;;;4998008;28;20034;-80
2023/07/29 01:11:34;;;;;;;10.95;6.15;;;17.90;99.90;;;;;;4998192;28;20043;-80
2023/07/29 01:14:06;;;;;;;13.18;7.55;;;17.70;99.90;;;;;;4982668;28;20050;-80
2023/07/29 01:16:40;;;;;;;10.82;7.20;;;17.60;99.90;;;;;;4996215;28;20546;-80
2023/07/29 01:19:23;;;;;;;10.47;6.53;;;17.60;99.90;;;;;;4999030;28;20498;-79
2023/07/29 01:21:52;;;;;;;9.15;6.90;;;17.50;99.90;;;;;;4999622;28;20783;-79
2023/07/29 01:24:21;;;;;;;9.65;6.40;;;17.50;99.90;;;;;;4998999;28;20039;-78
2023/07/29 01:26:48;;;;;;;8.73;6.85;;;17.50;99.90;;;;;;4982501;28;20042;-79
2023/07/29 01:29:15;;;;;;;10.20;7.07;;;17.40;99.90;;;;;;4997820;28;20049;-79
2023/07/29 01:31:47;;;;;;;9.75;7.35;;;17.50;99.90;;;;;;4997768;28;20046;-79
2023/07/29 01:34:25;;;;;;;10.07;6.95;;;17.50;99.90;;;;;;4998663;28;20128;-79
2023/07/29 01:36:54;;;;;;;10.20;6.63;;;17.70;99.90;;;;;;5002023;28;20048;-79
2023/07/29 01:39:25;;;;;;;10.10;6.90;;;17.70;99.90;;;;;;5002342;28;20065;-79
2023/07/29 01:41:52;;;;;;;10.30;6.30;;;17.60;99.90;;;;;;5001541;28;20120;-80
2023/07/29 01:44:20;;;;;;;7.30;6.07;;;17.60;99.90;;;;;;4984864;28;20058;-78
2023/07/29 01:46:48;;;;;;;8.75;6.20;;;17.50;99.90;;;;;;4984711;28;20526;-79
2023/07/29 01:49:16;;;;;;;8.43;5.50;;;17.50;99.90;;;;;;5001055;28;20121;-79
2023/07/29 01:51:43;;;;;;;7.95;5.55;;;17.60;99.90;;;;;;5002909;28;20070;-79
2023/07/29 01:54:10;;;;;;;8.05;5.70;;;17.70;99.90;;;;;;5001310;28;20137;-79
2023/07/29 01:56:39;;;;;;;8.27;6.18;;;17.70;99.90;;;;;;4985058;28;20458;-78
2023/07/29 01:59:07;;;;;;;9.15;6.07;;;17.60;99.90;;;;;;4986188;28;20038;-79
2023/07/29 02:01:34;;;;;;;7.10;5.75;;;17.60;99.90;;;;;;4983650;28;20038;-79
2023/07/29 02:04:02;;;;;;;8.18;5.80;;;17.60;99.90;;;;;;5001765;28;20042;-80
2023/07/29 02:06:29;;;;;;;9.02;6.50;;;17.60;99.90;;;;;;5008471;28;20042;-80
2023/07/29 02:08:57;;;;;;;9.00;6.25;;;17.60;99.90;;;;;;4981873;28;20091;-79
2023/07/29 02:11:27;;;;;;;10.77;6.47;;;17.60;99.90;;;;;;5000343;28;20046;-80
2023/07/29 02:13:57;;;;;;;7.35;6.43;;;17.50;99.90;;;;;;4983655;28;20134;-80
2023/07/29 02:16:24;;;;;;;10.63;7.03;;;17.50;99.90;;;;;;4983280;28;20054;-80
2023/07/29 02:18:52;;;;;;;8.25;6.95;;;17.40;99.90;;;;;;4984838;28;20050;-79
2023/07/29 02:21:20;;;;;;;8.52;6.35;;;17.50;99.90;;;;;;4987860;28;20398;-80
2023/07/29 02:23:47;;;;;;;13.45;7.53;;;17.50;99.90;;;;;;4984742;28;20046;-79
2023/07/29 02:26:15;;;;;;;11.23;6.85;;;17.50;99.90;;;;;;4983656;28;20492;-79
2023/07/29 02:28:42;;;;;;;9.77;6.43;;;17.40;99.90;;;;;;4983741;28;20064;-79
2023/07/29 02:31:17;;;;;;;12.60;6.90;;;17.30;99.90;;;;;;5000650;28;20034;-79
2023/07/29 02:33:45;;;;;;;9.93;6.57;;;17.20;99.90;;;;;;4982244;28;20042;-79
2023/07/29 02:36:14;;;;;;;8.70;7.20;;;17.10;99.90;;;;;;4984148;28;20053;-79
2023/07/29 02:38:42;;;;;;;9.48;7.45;;;17.00;99.90;;;;;;4983580;28;20063;-79
2023/07/29 02:41:12;;;;;;;8.50;7.30;;;16.90;99.90;;;;;;5000778;28;20038;-78
2023/07/29 02:43:40;;;;;;;11.23;6.70;;;17.10;99.90;;;;;;5001212;28;20045;-79
2023/07/29 02:46:08;;;;;;;10.45;7.43;;;17.10;99.90;;;;;;5007283;28;20081;-80
2023/07/29 02:48:37;;;;;;;9.23;6.97;;;17.10;99.90;;;;;;5000201;28;20053;-80
2023/07/29 02:51:04;;;;;;;12.73;6.80;;;17.10;99.90;;;;;;4982156;28;20054;-79
2023/07/29 02:53:32;;;;;;;9.23;6.45;;;17.20;99.90;;;;;;4983283;28;20042;-80
2023/07/29 02:55:59;;;;;;;8.85;6.18;;;17.20;99.90;;;;;;4983214;28;20123;-80
2023/07/29 02:58:27;;;;;;;8.43;6.47;;;17.20;99.90;;;;;;5007232;28;20042;-80
2023/07/29 03:00:54;;;;;;;8.00;7.20;;;17.10;99.90;;;;;;4982022;28;20038;-80
2023/07/29 03:03:21;;;;;;;7.30;6.38;;;17.10;99.90;;;;;;4982868;28;20125;-80
2023/07/29 03:05:50;;;;;;;7.90;6.65;;;17.20;99.90;;;;;;4982290;28;20043;-81
2023/07/29 03:08:18;;;;;;;9.50;6.22;;;17.20;99.90;;;;;;4983155;28;20132;-81
2023/07/29 03:10:45;;;;;;;8.60;6.28;;;17.20;99.90;;;;;;4999313;28;20045;-81
2023/07/29 03:13:12;;;;;;;9.40;6.68;;;17.10;99.90;;;;;;4982582;28;20585;-80
2023/07/29 03:15:40;;;;;;;10.38;6.50;;;17.20;99.90;;;;;;4984177;28;20145;-80
2023/07/29 03:18:07;;;;;;;9.90;5.97;;;17.20;99.90;;;;;;5049519;23;20044;-76
2023/07/29 03:20:35;;;;;;;8.63;6.22;;;17.10;99.90;;;;;;5074991;27;20343;-76
2023/07/29 03:23:04;;;;;;;9.07;6.68;;;17.10;99.90;;;;;;5108223;28;20126;-76
2023/07/29 03:25:31;;;;;;;10.00;7.00;;;17.00;99.90;;;;;;5082408;28;20039;-77
2023/07/29 03:27:58;;;;;;;10.05;7.72;;;17.00;99.90;;;;;;5110606;28;20032;-76
2023/07/29 03:30:26;;;;;;;7.55;6.85;;;17.00;99.90;;;;;;5091356;28;20050;-77
2023/07/29 03:32:54;;;;;;;10.95;7.32;;;17.00;99.90;;;;;;5091544;28;20047;-78
2023/07/29 03:35:21;;;;;;;7.63;6.82;;;17.00;99.90;;;;;;5091108;28;20044;-75
2023/07/29 03:37:48;;;;;;;9.50;7.28;;;17.00;99.90;;;;;;5092164;28;20044;-75
2023/07/29 03:40:18;;;;;;;10.07;7.88;;;17.00;99.90;;;;;;5090373;28;20040;-77
2023/07/29 03:42:45;;;;;;;9.00;7.65;;;17.00;99.90;;;;;;5090940;28;20043;-77
2023/07/29 03:45:12;;;;;;;8.18;7.10;;;17.00;99.90;;;;;;5091954;28;20044;-76
2023/07/29 03:47:40;;;;;;;8.05;6.97;;;16.90;99.90;;;;;;5097810;28;20063;-77
2023/07/29 03:50:09;;;;;;;9.55;7.65;;;16.80;99.90;;;;;;5094347;28;20032;-77
2023/07/29 03:52:36;;;;;;;8.63;7.72;;;16.80;99.90;;;;;;5098466;28;20089;-75
2023/07/29 03:55:04;;;;;;;8.38;7.22;;;16.80;99.90;;;;;;5098515;28;20082;-76
2023/07/29 03:57:33;;;;;;;9.68;7.50;;;17.00;99.90;;;;;;5093900;28;20129;-76
2023/07/29 04:00:00;;;;;;;10.75;7.05;;;17.00;99.90;;;;;;5092590;28;20230;-78
2023/07/29 04:02:33;;;;;;;11.80;7.05;;;17.00;99.90;;;;;;5092386;28;20037;-73
2023/07/29 04:05:01;;;;;;;10.88;6.90;;;17.00;99.90;;;;;;5091955;28;20499;-75
2023/07/29 04:07:28;;;;;;;8.90;6.53;;;17.00;99.90;;;;;;5089603;28;20040;-77
2023/07/29 04:09:56;;;;;;;7.78;6.68;;;17.10;99.90;;;;;;5092883;28;20065;-76
2023/07/29 04:12:24;;;;;;;10.63;6.78;;;17.30;99.90;;;;;;5093057;28;20118;-77
2023/07/29 04:14:54;;;;;;;8.63;6.45;;;17.50;99.90;;;;;;5093349;28;20036;-77
2023/07/29 04:17:21;;;;;;;9.00;5.90;;;17.70;99.90;;;;;;5114688;28;20698;-76
2023/07/29 04:19:48;;;;;;;8.00;5.57;;;17.90;99.90;;;;;;5115643;28;20024;-75
2023/07/29 04:22:17;;;;;;;6.55;5.10;;;18.30;99.90;;;;;;5113468;28;20040;-75
2023/07/29 04:24:45;;;;;;;7.43;5.03;;;18.90;99.90;;;;;;5107223;28;20104;-76
2023/07/29 04:27:12;;;;;;;9.25;5.25;;;19.50;99.90;;;;;;5109861;28;20040;-77
2023/07/29 04:29:39;;;;;;;7.70;5.07;;;20.00;99.90;;;;;;5098347;28;20093;-77
2023/07/29 04:32:08;;;;;;;6.57;4.93;;;20.40;99.90;;;;;;5099778;28;20032;-76
2023/07/29 04:34:36;;;;;;;10.20;5.25;;;20.50;99.90;;;;;;5100237;28;20499;-78
2023/07/29 04:37:03;;;;;;;10.05;5.53;;;20.20;99.90;;;;;;5108641;28;20082;-76
2023/07/29 04:39:33;;;;;;;8.25;4.85;;;20.10;99.90;;;;;;5101866;28;20040;-76
2023/07/29 04:42:00;;;;;;;9.20;4.90;;;20.10;99.90;;;;;;5110404;28;20032;-77
2023/07/29 04:44:28;;;;;;;10.15;4.95;;;19.90;99.90;;;;;;5102111;28;20040;-75
2023/07/29 04:46:55;;;;;;;8.40;5.13;;;19.90;99.90;;;;;;5099489;28;20047;-78
2023/07/29 04:49:24;;;;;;;9.30;5.00;;;19.70;99.90;;;;;;5108881;28;20348;-75
2023/07/29 04:51:51;;;;;;;8.90;5.25;;;19.60;99.90;;;;;;5116416;28;20040;-77
2023/07/29 04:54:20;;;;;;;9.07;5.57;;;19.60;99.90;;;;;;5114230;28;20047;-75
2023/07/29 04:56:47;;;;;;;7.28;5.25;;;19.70;99.90;;;;;;5105863;28;20134;-76
2023/07/29 04:59:18;;;;;;;8.60;5.07;;;19.70;99.90;;;;;;5125182;28;20123;-75
2023/07/29 05:01:45;;;;;;;10.35;5.45;;;19.70;99.90;;;;;;5109179;28;20047;-75
2023/07/29 05:04:13;;;;;;;7.45;5.15;;;19.60;99.90;;;;;;5101305;28;20051;-75
2023/07/29 05:06:42;;;;;;;10.20;4.95;;;19.90;99.90;;;;;;5109338;28;20043;-75
2023/07/29 05:09:16;;;;;;;10.10;5.97;;;20.20;99.90;;;;;;5103508;28;20055;-76
2023/07/29 05:11:45;;;;;;;8.23;5.85;;;20.40;99.90;;;;;;5102586;28;20036;-77
2023/07/29 05:14:13;;;;;;;9.75;5.53;;;20.40;99.90;;;;;;5102740;28;20038;-77
2023/07/29 05:16:41;;;;;;;7.22;6.07;;;20.30;99.90;;;;;;5126365;28;20044;-76
2023/07/29 05:19:08;;;;;;;12.85;6.57;;;20.20;99.90;;;;;;5123636;28;20077;-76
2023/07/29 05:21:35;;;;;;;9.77;5.72;;;20.10;99.90;;;;;;5110611;28;20109;-76
2023/07/29 05:24:05;;;;;;;11.75;7.75;;;20.00;99.90;;;;;;5113056;28;20056;-77
2023/07/29 05:26:33;;;;;;;12.10;6.60;;;19.90;99.90;;;;;;5102874;28;20475;-77
2023/07/29 05:29:00;;;;;;;9.43;7.38;;;19.90;99.90;;;;;;5103010;27;20067;-77
2023/07/29 05:31:27;;;;;;;10.15;5.97;;;19.90;99.90;;;;;;5112805;27;20063;-76
2023/07/29 05:33:56;;;;;;;10.65;7.30;;;19.90;99.90;;;;;;5104910;27;20082;-77
2023/07/29 05:36:23;;;;;;;11.80;7.15;;;20.00;99.90;;;;;;5102285;28;20138;-76
2023/07/29 05:38:52;;;;;;;9.32;6.78;;;20.00;99.90;;;;;;5111936;28;20096;-75
2023/07/29 05:41:21;;;;;;;10.13;6.13;;;20.10;99.90;;;;;;5099631;27;20066;-75
2023/07/29 05:43:49;;;;;;;6.65;5.40;;;20.20;99.90;;;;;;5102108;27;20714;-76
2023/07/29 05:46:16;;;;;;;8.10;5.88;;;20.30;99.90;;;;;;5101553;28;20583;-75
2023/07/29 05:48:43;;;;;;;12.20;6.47;;;20.60;99.90;;;;;;5103975;28;20073;-77
2023/07/29 05:51:11;;;;;;;7.70;5.40;;;20.70;99.90;;;;;;5105130;28;20097;-78
2023/07/29 05:53:38;;;;;;;8.15;5.40;;;20.90;99.90;;;;;;5111911;28;20150;-77
2023/07/29 05:56:06;;;;;;;10.25;5.53;;;21.00;99.90;;;;;;5127598;27;20399;-76
2023/07/29 05:58:35;;;;;;;14.23;5.95;;;21.20;99.90;;;;;;5114580;27;20249;-77
2023/07/29 06:01:02;;;;;;;9.20;5.78;;;21.30;99.90;;;;;;5104316;27;20681;-77
2023/07/29 06:03:30;;;;;;;6.30;5.13;;;21.40;99.90;;;;;;5111669;28;20043;-77
2023/07/29 06:05:58;;;;;;;9.70;6.15;;;21.40;99.90;;;;;;5109557;28;20513;-78
2023/07/29 06:08:28;;;;;;;8.63;6.00;;;21.30;99.90;;;;;;5104351;27;20050;-76
2023/07/29 06:10:55;;;;;;;9.10;6.65;;;21.20;99.90;;;;;;5101204;28;20535;-77
2023/07/29 06:13:22;;;;;;;9.90;6.85;;;21.30;99.90;;;;;;5110861;28;20387;-76
2023/07/29 06:15:52;;;;;;;8.88;6.05;;;21.30;99.90;;;;;;5100132;28;20055;-77
2023/07/29 06:18:19;;;;;;;10.05;6.80;;;21.30;99.90;;;;;;5100306;28;20044;-76
2023/07/29 06:20:46;;;;;;;9.68;6.53;;;21.30;99.90;;;;;;5101284;28;20036;-75
2023/07/29 06:23:13;;;;;;;12.68;8.70;;;21.40;99.90;;;;;;5101945;28;20035;-75
2023/07/29 06:25:41;;;;;;;12.73;8.00;;;21.60;99.90;;;;;;5134275;27;20459;-78
2023/07/29 06:28:08;;;;;;;11.02;7.88;;;22.00;99.90;;;;;;5136325;27;20513;-76
2023/07/29 06:30:35;;;;;;;11.48;6.72;;;22.40;99.90;;;;;;5133492;27;20101;-76
2023/07/29 06:33:10;;;;;;;7.88;5.95;;;22.60;99.90;;;;;;5113358;28;20055;-77
2023/07/29 06:35:37;;;;;;;7.72;5.47;;;22.70;99.90;;;;;;5113291;28;20495;-76
2023/07/29 06:38:05;;;;;;;8.95;6.57;;;23.00;99.90;;;;;;5113943;28;20056;-76
2023/07/29 06:40:32;;;;;;;10.63;6.03;;;23.30;99.90;;;;;;5125333;27;20051;-74
2023/07/29 06:42:59;;;;;;;10.93;5.95;;;23.80;99.90;;;;;;5121641;28;20139;-77
2023/07/29 06:45:28;;;;;;;9.65;5.95;;;24.20;99.90;;;;;;5125052;28;20036;-77
2023/07/29 06:47:55;;;;;;;9.07;5.88;;;24.80;99.90;;;;;;5115541;27;20035;-76
2023/07/29 06:50:23;;;;;;;7.63;5.47;;;24.80;99.90;;;;;;5111827;28;20058;-77
2023/07/29 06:52:51;;;;;;;9.90;5.80;;;25.00;99.90;;;;;;5111813;27;20531;-77
2023/07/29 06:55:18;;;;;;;11.60;6.00;;;25.30;99.90;;;;;;5109733;28;20690;-74
2023/07/29 06:57:45;;;;;;;11.30;5.93;;;25.60;99.90;;;;;;5109997;27;20067;-76
2023/07/29 07:00:13;;;;;;;9.68;6.93;;;26.10;99.90;;;;;;5110300;27;20040;-77
2023/07/29 07:02:40;;;;;;;8.75;5.93;;;26.30;99.90;;;;;;5102581;28;20469;-78
2023/07/29 07:05:07;;;;;;;12.93;6.35;;;26.40;99.90;;;;;;5110426;28;20111;-78
2023/07/29 07:07:37;;;;;;;9.88;6.60;;;26.40;99.90;;;;;;5110807;27;20067;-78
2023/07/29 07:10:05;;;;;;;10.48;6.80;;;26.40;99.90;;;;;;5109237;28;20063;-78
2023/07/29 07:12:33;;;;;;;10.45;7.03;;;26.50;99.90;;;;;;5108981;28;20043;-77
2023/07/29 07:15:01;;;;;;;13.88;10.15;;;26.40;99.90;;;;;;5110860;27;20043;-78
2023/07/29 07:17:29;;;;;;;15.23;8.50;;;26.30;99.90;;;;;;5101778;28;20032;-75
2023/07/29 07:19:56;;;;;;;14.70;7.53;;;26.40;99.90;;;;;;5129874;27;20051;-75
2023/07/29 07:22:23;;;;;;;14.70;8.15;;;26.50;99.90;;;;;;5130756;27;20099;-76
2023/07/29 07:24:52;;;;;;;14.57;8.27;;;26.50;99.90;;;;;;5137450;27;20095;-77
2023/07/29 07:27:19;;;;;;;11.85;7.30;;;26.50;99.90;;;;;;5148884;27;20044;-77
2023/07/29 07:29:47;;;;;;;13.85;8.70;;;26.60;99.90;;;;;;5129567;27;20171;-74
2023/07/29 07:32:14;;;;;;;16.88;9.13;;;26.80;99.90;;;;;;5128632;27;20142;-76
2023/07/29 07:34:41;;;;;;;10.13;6.78;;;27.10;99.90;;;;;;5130834;27;20058;-77
2023/07/29 07:37:08;;;;;;;10.82;6.70;;;27.10;99.90;;;;;;5129648;27;20071;-78
2023/07/29 07:39:36;;;;;;;10.05;6.53;;;26.60;99.90;;;;;;5110725;27;20506;-79
2023/07/29 07:42:05;;;;;;;10.80;7.88;;;26.60;99.90;;;;;;5128647;27;20479;-75
2023/07/29 07:44:33;;;;;;;12.13;7.30;;;26.70;99.90;;;;;;5129132;27;20039;-75
2023/07/29 07:47:00;;;;;;;9.70;6.40;;;27.10;99.90;;;;;;5129866;27;20047;-77
2023/07/29 07:49:27;;;;;;;14.32;7.18;;;27.40;99.90;;;;;;5110211;27;20039;-75
2023/07/29 07:51:55;;;;;;;9.65;6.57;;;27.60;99.90;;;;;;5129379;27;20407;-77
2023/07/29 07:54:22;;;;;;;10.80;7.22;;;27.60;99.90;;;;;;5129081;27;20482;-76
2023/07/29 07:56:49;;;;;;;11.23;7.60;;;27.60;99.90;;;;;;5129496;27;20070;-76
2023/07/29 07:59:18;;;;;;;14.02;8.90;;;27.40;99.90;;;;;;5127868;27;20088;-78
2023/07/29 08:01:46;;;;;;;12.48;7.88;;;27.60;99.90;;;;;;5129535;27;20057;-76
2023/07/29 08:04:14;;;;;;;14.50;8.60;;;27.70;99.90;;;;;;5128806;27;20027;-76
2023/07/29 08:06:41;;;;;;;14.50;7.80;;;27.60;99.90;;;;;;5131208;27;20034;-76
2023/07/29 08:09:08;;;;;;;13.07;8.20;;;27.60;99.90;;;;;;5128830;27;20035;-78
2023/07/29 08:11:35;;;;;;;12.75;7.63;;;27.50;99.90;;;;;;5129531;27;20039;-78
2023/07/29 08:14:03;;;;;;;9.90;6.95;;;27.60;99.90;;;;;;5130304;27;20095;-76
2023/07/29 08:16:32;;;;;;;13.90;7.55;;;27.60;99.90;;;;;;5114468;27;20469;-75
2023/07/29 08:18:59;;;;;;;9.18;6.38;;;27.50;99.90;;;;;;5122059;27;20456;-78
2023/07/29 08:21:28;;;;;;;10.88;7.18;;;27.30;99.90;;;;;;5122485;27;20486;-75
2023/07/29 08:23:55;;;;;;;11.48;7.32;;;27.30;99.90;;;;;;5124517;27;20076;-74
2023/07/29 08:26:22;;;;;;;12.38;7.22;;;27.50;99.90;;;;;;5105543;27;20329;-74
2023/07/29 08:28:49;;;;;;;12.95;7.72;;;27.60;99.90;;;;;;5121264;28;20051;-77
2023/07/29 08:31:17;;;;;;;13.02;8.38;;;27.60;99.90;;;;;;5121777;28;20036;-79
2023/07/29 08:33:46;;;;;;;11.95;7.03;;;27.60;99.90;;;;;;5120082;28;20122;-76
2023/07/29 08:36:13;;;;;;;10.20;6.22;;;27.90;99.90;;;;;;5120078;28;20089;-77
2023/07/29 08:38:41;;;;;;;6.95;4.25;;;28.00;99.90;;;;;;5119410;28;20096;-78
2023/07/29 08:41:15;;;;;;;8.00;4.72;;;28.10;99.90;;;;;;5104784;28;20125;-78
2023/07/29 08:43:50;;;;;;;12.00;7.03;;;28.20;99.90;;;;;;5123489;27;20153;-78
2023/07/29 08:46:17;;;;;;;13.88;6.82;;;28.30;99.90;;;;;;5105778;27;20043;-77
2023/07/29 08:48:47;;;;;;;9.63;5.70;;;28.10;99.90;;;;;;5104197;27;20048;-77
2023/07/29 08:51:15;;;;;;;11.02;5.50;;;28.20;99.90;;;;;;5125288;27;20108;-76
2023/07/29 08:53:43;;;;;;;9.35;5.75;;;28.40;99.90;;;;;;5124971;27;20088;-77
2023/07/29 08:56:10;;;;;;;9.13;6.85;;;28.20;99.90;;;;;;5122467;27;20069;-78
2023/07/29 08:58:38;;;;;;;14.55;6.53;;;28.40;99.90;;;;;;5139032;27;20043;-78
2023/07/29 09:01:06;;;;;;;9.10;6.07;;;28.50;99.90;;;;;;5119933;27;20047;-77
2023/07/29 09:03:33;;;;;;;11.18;5.45;;;28.40;99.90;;;;;;5124104;27;20116;-77
2023/07/29 09:06:03;;;;;;;10.43;6.72;;;28.40;99.90;;;;;;5121924;27;20195;-77
2023/07/29 09:08:30;;;;;;;9.60;5.18;;;28.30;99.90;;;;;;5124103;27;20031;-75
2023/07/29 09:10:58;;;;;;;10.00;6.28;;;28.30;99.90;;;;;;5126195;27;20123;-77
2023/07/29 09:13:27;;;;;;;12.32;7.13;;;28.30;99.90;;;;;;5124557;27;20027;-77
2023/07/29 09:15:56;;;;;;;9.63;5.50;;;28.60;99.90;;;;;;5126815;27;20069;-75
2023/07/29 09:18:24;;;;;;;9.55;6.05;;;28.70;99.90;;;;;;5128543;27;20738;-75
2023/07/29 09:20:52;;;;;;;9.80;5.47;;;29.00;99.90;;;;;;5132869;27;20050;-75
2023/07/29 09:23:21;;;;;;;8.95;5.50;;;29.10;99.90;;;;;;5133123;27;20501;-77
2023/07/29 09:25:48;;;;;;;16.77;6.18;;;29.20;99.90;;;;;;5137959;27;20571;-77
2023/07/29 09:28:17;;;;;;;8.38;5.28;;;29.20;99.90;;;;;;5139535;27;20482;-75
2023/07/29 09:30:46;;;;;;;8.50;5.03;;;29.40;99.90;;;;;;5122002;27;20044;-76
2023/07/29 09:33:13;;;;;;;8.00;5.25;;;29.50;99.90;;;;;;5141121;27;20112;-77
2023/07/29 09:35:41;;;;;;;6.80;4.82;;;29.40;99.90;;;;;;5144097;27;20035;-77
2023/07/29 09:38:11;;;;;;;15.52;8.95;;;29.50;99.90;;;;;;5130162;27;20051;-83
2023/07/29 09:40:45;;;;;;;10.10;6.22;;;29.50;99.90;;;;;;5140205;27;20107;-83
2023/07/29 09:43:12;;;;;;;12.48;5.47;;;29.60;99.90;;;;;;5139103;27;20058;-75
2023/07/29 09:45:39;;;;;;;10.20;6.40;;;29.60;99.90;;;;;;5156807;27;20060;-79
2023/07/29 09:48:09;;;;;;;10.65;7.18;;;29.60;99.90;;;;;;5121181;27;20138;-77
2023/07/29 09:50:37;;;;;;;13.18;9.43;;;29.70;99.90;;;;;;5134917;27;20031;-77
2023/07/29 09:53:05;;;;;;;12.68;8.48;;;29.80;99.90;;;;;;5134884;27;20574;-78
2023/07/29 09:55:34;;;;;;;9.27;5.45;;;29.70;99.90;;;;;;5135760;27;20043;-79
2023/07/29 09:58:07;;;;;;;45.45;35.83;;;29.50;99.90;;;;;;5134800;27;20123;-84
2023/07/29 10:00:35;;;;;;;15.20;9.40;;;29.40;99.90;;;;;;5125492;27;20051;-77
2023/07/29 10:03:03;;;;;;;8.63;5.63;;;29.40;99.90;;;;;;5132570;27;20035;-76
2023/07/29 10:05:30;;;;;;;7.22;4.65;;;29.40;99.90;;;;;;5132399;27;20066;-76
2023/07/29 10:07:58;;;;;;;6.05;4.47;;;29.50;99.90;;;;;;5132502;27;20058;-77
2023/07/29 10:10:27;;;;;;;9.00;5.38;;;29.60;99.90;;;;;;5115542;27;20032;-74
2023/07/29 10:12:55;;;;;;;11.07;7.93;;;29.70;99.90;;;;;;5136056;27;20199;-75
2023/07/29 10:15:25;;;;;;;8.98;6.45;;;29.80;99.90;;;;;;5134213;27;20043;-78
2023/07/29 10:17:53;;;;;;;7.18;4.35;;;29.90;99.90;;;;;;5138030;27;20050;-78
2023/07/29 10:20:20;;;;;;;8.52;4.43;;;29.90;99.90;;;;;;5125651;27;20100;-77
2023/07/29 10:22:48;;;;;;;6.47;3.97;;;30.10;99.90;;;;;;5140494;27;20039;-76
2023/07/29 10:25:18;;;;;;;7.85;3.72;;;30.10;99.90;;;;;;5135193;27;20045;-76
2023/07/29 10:27:50;;;;;;;6.53;3.97;;;29.70;99.90;;;;;;5137582;27;20039;-77
2023/07/29 10:30:19;;;;;;;8.05;4.68;;;29.70;99.90;;;;;;5135980;27;20039;-75
2023/07/29 10:32:49;;;;;;;6.25;4.10;;;29.80;99.90;;;;;;5136952;27;20054;-75
2023/07/29 10:35:17;;;;;;;6.00;3.83;;;30.00;99.90;;;;;;5135791;27;20035;-75
2023/07/29 10:37:45;;;;;;;5.88;3.80;;;29.80;99.90;;;;;;5139105;27;20064;-75
2023/07/29 10:40:13;;;;;;;6.75;3.70;;;29.40;99.90;;;;;;5138624;27;20070;-79
2023/07/29 10:43:01;;;;;;;7.25;5.00;;;29.40;99.90;;;;;;5137164;27;20133;-78
2023/07/29 10:45:38;;;;;;;12.10;6.88;;;29.50;99.90;;;;;;5133896;27;20043;-77
2023/07/29 10:48:11;;;;;;;7.60;4.22;;;29.70;99.90;;;;;;5132768;27;20035;-76
2023/07/29 10:50:38;;;;;;;6.70;3.92;;;29.70;99.90;;;;;;5131784;27;20518;-75
2023/07/29 10:53:06;;;;;;;5.57;3.50;;;29.70;99.90;;;;;;5132597;27;20043;-77
2023/07/29 10:55:36;;;;;;;11.25;5.00;;;29.90;99.90;;;;;;5134045;27;20054;-74
2023/07/29 10:58:08;;;;;;;9.15;5.00;;;30.10;99.90;;;;;;5137461;27;20058;-77
2023/07/29 11:00:37;;;;;;;11.63;7.57;;;30.10;99.90;;;;;;5141145;27;20126;-76
2023/07/29 11:03:08;;;;;;;8.13;4.35;;;30.20;99.90;;;;;;5133503;27;20051;-76
2023/07/29 11:05:50;;;;;;;7.70;4.30;;;30.30;99.90;;;;;;5140239;27;20532;-76
2023/07/29 11:08:19;;;;;;;5.95;3.72;;;30.20;99.90;;;;;;5113549;27;20122;-75
2023/07/29 11:10:59;;;;;;;5.95;3.63;;;30.30;99.90;;;;;;5129975;27;20052;-78
2023/07/29 11:13:28;;;;;;;4.70;3.70;;;30.10;99.90;;;;;;5130806;27;20039;-78
2023/07/29 11:15:58;;;;;;;5.95;3.75;;;30.10;99.90;;;;;;5131218;27;20047;-75
2023/07/29 11:18:30;;;;;;;5.78;3.80;;;30.20;99.90;;;;;;5126990;27;20107;-76
2023/07/29 11:20:59;;;;;;;8.00;3.97;;;30.40;99.90;;;;;;5122418;27;20035;-75
2023/07/29 11:23:31;;;;;;;6.53;3.85;;;30.60;99.90;;;;;;5122103;27;20046;-78
2023/07/29 11:25:58;;;;;;;6.70;3.78;;;30.50;99.90;;;;;;5126022;27;20467;-77
2023/07/29 11:28:26;;;;;;;12.98;9.20;;;30.40;99.90;;;;;;5124352;27;20084;-77
2023/07/29 11:30:55;;;;;;;8.63;5.78;;;30.50;99.90;;;;;;5124622;27;20069;-77
2023/07/29 11:33:24;;;;;;;9.20;4.13;;;30.70;99.90;;;;;;5119571;27;20040;-76
2023/07/29 11:35:53;;;;;;;7.13;4.57;;;30.70;99.90;;;;;;5121123;27;20066;-77
2023/07/29 11:38:22;;;;;;;11.55;4.85;;;30.40;99.90;;;;;;5119111;27;20108;-76
2023/07/29 11:41:00;;;;;;;6.28;3.83;;;30.40;99.90;;;;;;5118636;27;20057;-76
2023/07/29 11:43:27;;;;;;;9.55;4.03;;;30.20;99.90;;;;;;5119507;27;20097;-74
2023/07/29 11:45:55;;;;;;;6.63;4.25;;;30.30;99.90;;;;;;5118664;27;20084;-76
2023/07/29 11:48:29;;;;;;;6.15;3.88;;;30.40;99.90;;;;;;5120742;27;20555;-76
2023/07/29 11:50:58;;;;;;;11.57;4.32;;;30.30;99.90;;;;;;5118884;27;20040;-78
2023/07/29 11:53:29;;;;;;;8.32;4.60;;;30.20;99.90;;;;;;5118487;27;20131;-76
2023/07/29 11:55:59;;;;;;;8.68;4.47;;;30.10;99.90;;;;;;5124015;27;20072;-76
2023/07/29 11:58:27;;;;;;;8.07;4.18;;;30.10;99.90;;;;;;5130492;27;20068;-77
2023/07/29 12:00:54;;;;;;;8.38;4.85;;;30.20;99.90;;;;;;5123208;27;20475;-78
2023/07/29 12:03:22;;;;;;;7.40;4.60;;;30.20;99.90;;;;;;5119571;27;20478;-77
2023/07/29 12:05:49;;;;;;;6.40;4.72;;;30.20;99.90;;;;;;5119908;27;20059;-77
2023/07/29 12:08:18;;;;;;;6.93;4.68;;;30.10;99.90;;;;;;5119266;27;20066;-75
2023/07/29 12:10:46;;;;;;;6.47;5.13;;;30.20;99.90;;;;;;5118247;27;20055;-76
2023/07/29 12:13:14;;;;;;;7.38;4.38;;;30.30;99.90;;;;;;5119971;27;20050;-76
2023/07/29 12:15:41;;;;;;;7.80;5.50;;;30.30;99.90;;;;;;5120115;27;20039;-74
2023/07/29 12:18:09;;;;;;;8.95;4.88;;;30.40;99.90;;;;;;5120036;27;20404;-76
2023/07/29 12:20:38;;;;;;;7.72;4.60;;;30.30;99.90;;;;;;5119267;27;20099;-77
2023/07/29 12:23:07;;;;;;;9.45;4.88;;;30.30;99.90;;;;;;5120788;27;20073;-76
2023/07/29 12:25:37;;;;;;;8.05;5.18;;;30.50;99.90;;;;;;5120340;27;20071;-76
2023/07/29 12:28:06;;;;;;;7.22;4.65;;;30.40;99.90;;;;;;5099747;28;20387;-76
2023/07/29 12:30:33;;;;;;;10.57;5.35;;;30.30;99.90;;;;;;5100387;28;20035;-76
2023/07/29 12:33:01;;;;;;;8.57;5.45;;;30.30;99.90;;;;;;5118778;28;20031;-76
2023/07/29 12:35:38;;;;;;;8.38;6.07;;;30.30;99.90;;;;;;5120984;28;20043;-76
2023/07/29 12:38:06;;;;;;;10.65;4.28;;;30.30;99.90;;;;;;5102887;28;20039;-78
2023/07/29 12:40:33;;;;;;;6.38;3.92;;;30.30;99.90;;;;;;5120255;28;20039;-75
2023/07/29 12:43:02;;;;;;;6.10;4.13;;;30.10;99.90;;;;;;5121857;28;20078;-76
2023/07/29 12:45:39;;;;;;;7.65;4.95;;;30.10;99.90;;;;;;5104529;28;20113;-77
2023/07/29 12:48:07;;;;;;;8.48;4.80;;;30.10;99.90;;;;;;5120654;28;20062;-75
2023/07/29 12:50:34;;;;;;;8.10;5.00;;;30.30;99.90;;;;;;5121189;28;20043;-78